sensor_id;sensor_type;location;lat;lon;timestamp;P1;durP1;ratioP1;P2;durP2;ratioP2
18168;SDS011;49877;50.398;30.324;2022-12-07T00:01:46;24.07;;;13.00;;
18168;SDS011;49877;50.398;30.324;2022-12-07T00:04:16;18.50;;;11.10;;
18168;SDS011;49877;50.398;30.324;2022-12-07T00:06:46;19.67;;;10.50;;
18168;SDS011;49877;50.398;30.324;2022-12-07T00:09:16;17.07;;;9.87;;
18168;SDS011;49877;50.398;30.324;2022-12-07T00:11:44;17.23;;;10.73;;
18168;SDS011;49877;50.398;30.324;2022-12-07T00:14:14;22.87;;;12.87;;
18168;SDS011;49877;50.398;30.324;2022-12-07T00:16:42;18.23;;;11.37;;
18168;SDS011;49877;50.398;30.324;2022-12-07T00:19:10;16.73;;;10.37;;
18168;SDS011;49877;50.398;30.324;2022-12-07T00:21:40;16.10;;;9.90;;
18168;SDS011;49877;50.398;30.324;2022-12-07T00:24:07;16.17;;;9.13;;
18168;SDS011;49877;50.398;30.324;2022-12-07T05:20:22;24.17;;;13.73;;
18168;SDS011;49877;50.398;30.324;2022-12-07T05:22:49;23.97;;;12.37;;
18168;SDS011;49877;50.398;30.324;2022-12-07T05:25:16;24.83;;;13.80;;
18168;SDS011;49877;50.398;30.324;2022-12-07T05:27:42;26.70;;;13.30;;
18168;SDS011;49877;50.398;30.324;2022-12-07T05:30:10;22.27;;;12.73;;
18168;SDS011;49877;50.398;30.324;2022-12-07T05:32:37;28.23;;;13.47;;
18168;SDS011;49877;50.398;30.324;2022-12-07T05:35:04;26.07;;;14.33;;
18168;SDS011;49877;50.398;30.324;2022-12-07T05:37:33;25.17;;;13.20;;
18168;SDS011;49877;50.398;30.324;2022-12-07T05:39:59;23.27;;;12.47;;
18168;SDS011;49877;50.398;30.324;2022-12-07T05:42:26;29.90;;;13.97;;
18168;SDS011;49877;50.398;30.324;2022-12-07T05:44:53;24.97;;;13.03;;
18168;SDS011;49877;50.398;30.324;2022-12-07T05:47:20;26.80;;;13.77;;
18168;SDS011;49877;50.398;30.324;2022-12-07T05:49:47;24.33;;;13.47;;
18168;SDS011;49877;50.398;30.324;2022-12-07T05:52:14;26.53;;;13.13;;
18168;SDS011;49877;50.398;30.324;2022-12-07T05:54:42;22.20;;;12.80;;
18168;SDS011;49877;50.398;30.324;2022-12-07T05:57:09;24.23;;;13.23;;
18168;SDS011;49877;50.398;30.324;2022-12-07T05:59:36;27.20;;;13.77;;
18168;SDS011;49877;50.398;30.324;2022-12-07T06:02:03;27.20;;;14.10;;
18168;SDS011;49877;50.398;30.324;2022-12-07T06:04:31;28.77;;;15.23;;
18168;SDS011;49877;50.398;30.324;2022-12-07T06:06:59;28.70;;;14.70;;
18168;SDS011;49877;50.398;30.324;2022-12-07T06:09:27;25.30;;;13.17;;
18168;SDS011;49877;50.398;30.324;2022-12-07T06:11:56;23.67;;;12.90;;
18168;SDS011;49877;50.398;30.324;2022-12-07T06:14:40;38.10;;;23.60;;
18168;SDS011;49877;50.398;30.324;2022-12-07T10:22:54;38.80;;;22.20;;
18168;SDS011;49877;50.398;30.324;2022-12-07T10:25:25;34.43;;;20.87;;
18168;SDS011;49877;50.398;30.324;2022-12-07T10:27:59;38.43;;;21.67;;
18168;SDS011;49877;50.398;30.324;2022-12-07T10:30:27;36.17;;;21.13;;
18168;SDS011;49877;50.398;30.324;2022-12-07T10:32:55;33.93;;;19.07;;
18168;SDS011;49877;50.398;30.324;2022-12-07T10:35:24;34.33;;;20.63;;
18168;SDS011;49877;50.398;30.324;2022-12-07T10:37:53;44.37;;;22.87;;
18168;SDS011;49877;50.398;30.324;2022-12-07T10:40:27;45.93;;;24.77;;
18168;SDS011;49877;50.398;30.324;2022-12-07T10:43:12;43.07;;;23.80;;
18168;SDS011;49877;50.398;30.324;2022-12-07T10:45:54;39.73;;;23.83;;
18168;SDS011;49877;50.398;30.324;2022-12-07T10:48:42;42.00;;;23.27;;
18168;SDS011;49877;50.398;30.324;2022-12-07T10:51:21;43.00;;;22.80;;
18168;SDS011;49877;50.398;30.324;2022-12-07T10:53:56;52.77;;;26.63;;
18168;SDS011;49877;50.398;30.324;2022-12-07T10:56:34;60.67;;;27.83;;
18168;SDS011;49877;50.398;30.324;2022-12-07T10:59:22;53.00;;;26.33;;
18168;SDS011;49877;50.398;30.324;2022-12-07T11:02:13;49.40;;;25.03;;
18168;SDS011;49877;50.398;30.324;2022-12-07T11:04:54;51.23;;;26.40;;
18168;SDS011;49877;50.398;30.324;2022-12-07T11:07:35;50.03;;;25.83;;
18168;SDS011;49877;50.398;30.324;2022-12-07T11:10:10;54.97;;;29.03;;
18168;SDS011;49877;50.398;30.324;2022-12-07T11:12:58;55.33;;;27.30;;
18168;SDS011;49877;50.398;30.324;2022-12-07T11:15:41;41.27;;;22.83;;
18168;SDS011;49877;50.398;30.324;2022-12-07T11:18:19;33.23;;;19.80;;
18168;SDS011;49877;50.398;30.324;2022-12-07T11:20:52;35.60;;;20.93;;
18168;SDS011;49877;50.398;30.324;2022-12-07T11:23:27;35.23;;;19.17;;
18168;SDS011;49877;50.398;30.324;2022-12-07T11:26:18;37.53;;;21.80;;
18168;SDS011;49877;50.398;30.324;2022-12-07T11:29:03;33.83;;;20.53;;
18168;SDS011;49877;50.398;30.324;2022-12-07T11:31:47;40.50;;;22.07;;
18168;SDS011;49877;50.398;30.324;2022-12-07T11:34:23;39.90;;;22.57;;
18168;SDS011;49877;50.398;30.324;2022-12-07T11:36:57;33.87;;;20.67;;
18168;SDS011;49877;50.398;30.324;2022-12-07T11:39:26;33.87;;;21.00;;
18168;SDS011;49877;50.398;30.324;2022-12-07T11:42:04;42.60;;;23.10;;
18168;SDS011;49877;50.398;30.324;2022-12-07T11:44:37;40.20;;;21.83;;
18168;SDS011;49877;50.398;30.324;2022-12-07T11:47:10;44.93;;;26.17;;
18168;SDS011;49877;50.398;30.324;2022-12-07T11:49:43;51.77;;;27.40;;
18168;SDS011;49877;50.398;30.324;2022-12-07T11:52:18;45.63;;;26.17;;
18168;SDS011;49877;50.398;30.324;2022-12-07T11:54:50;39.90;;;23.70;;
18168;SDS011;49877;50.398;30.324;2022-12-07T11:57:24;36.40;;;22.50;;
18168;SDS011;49877;50.398;30.324;2022-12-07T11:59:59;36.40;;;22.33;;
18168;SDS011;49877;50.398;30.324;2022-12-07T12:02:31;33.00;;;19.87;;
18168;SDS011;49877;50.398;30.324;2022-12-07T12:05:03;32.07;;;19.23;;
18168;SDS011;49877;50.398;30.324;2022-12-07T12:07:39;33.10;;;20.67;;
18168;SDS011;49877;50.398;30.324;2022-12-07T12:10:14;34.20;;;21.13;;
18168;SDS011;49877;50.398;30.324;2022-12-07T12:12:58;39.03;;;22.37;;
18168;SDS011;49877;50.398;30.324;2022-12-07T12:15:48;49.70;;;25.00;;
18168;SDS011;49877;50.398;30.324;2022-12-07T12:18:27;62.20;;;29.97;;
18168;SDS011;49877;50.398;30.324;2022-12-07T12:21:13;74.73;;;35.00;;
18168;SDS011;49877;50.398;30.324;2022-12-07T12:23:44;57.73;;;29.10;;
18168;SDS011;49877;50.398;30.324;2022-12-07T12:26:15;40.00;;;22.07;;
18168;SDS011;49877;50.398;30.324;2022-12-07T12:28:50;40.00;;;20.23;;
18168;SDS011;49877;50.398;30.324;2022-12-07T12:37:13;36.97;;;21.07;;
18168;SDS011;49877;50.398;30.324;2022-12-07T12:42:59;35.17;;;21.07;;
18168;SDS011;49877;50.398;30.324;2022-12-07T12:45:27;39.27;;;23.50;;
18168;SDS011;49877;50.398;30.324;2022-12-07T12:47:56;38.67;;;22.40;;
18168;SDS011;49877;50.398;30.324;2022-12-07T12:50:25;36.37;;;20.60;;
18168;SDS011;49877;50.398;30.324;2022-12-07T12:53:12;31.43;;;18.77;;
18168;SDS011;49877;50.398;30.324;2022-12-07T12:55:53;33.53;;;19.80;;
18168;SDS011;49877;50.398;30.324;2022-12-07T12:58:40;34.77;;;19.57;;
18168;SDS011;49877;50.398;30.324;2022-12-07T13:04:26;32.43;;;20.20;;
18168;SDS011;49877;50.398;30.324;2022-12-07T13:06:57;36.90;;;20.53;;
18168;SDS011;49877;50.398;30.324;2022-12-07T13:09:24;30.73;;;19.53;;
18168;SDS011;49877;50.398;30.324;2022-12-07T13:12:01;35.17;;;24.00;;
18168;SDS011;49877;50.398;30.324;2022-12-07T13:14:51;44.50;;;28.33;;
18168;SDS011;49877;50.398;30.324;2022-12-07T13:20:52;48.47;;;34.30;;
18168;SDS011;49877;50.398;30.324;2022-12-07T13:23:27;45.87;;;31.77;;
18168;SDS011;49877;50.398;30.324;2022-12-07T13:25:59;45.30;;;29.47;;
18168;SDS011;49877;50.398;30.324;2022-12-07T13:28:36;41.80;;;25.50;;
18168;SDS011;49877;50.398;30.324;2022-12-07T13:33:59;46.40;;;28.30;;
18168;SDS011;49877;50.398;30.324;2022-12-07T13:36:27;40.50;;;26.63;;
18168;SDS011;49877;50.398;30.324;2022-12-07T13:39:09;47.70;;;29.70;;
18168;SDS011;49877;50.398;30.324;2022-12-07T13:41:42;40.43;;;24.60;;
18168;SDS011;49877;50.398;30.324;2022-12-07T13:44:10;33.93;;;21.23;;
18168;SDS011;49877;50.398;30.324;2022-12-07T13:46:44;41.10;;;26.77;;
18168;SDS011;49877;50.398;30.324;2022-12-07T18:04:36;56.90;;;28.43;;
18168;SDS011;49877;50.398;30.324;2022-12-07T18:07:04;73.77;;;34.50;;
18168;SDS011;49877;50.398;30.324;2022-12-07T18:09:31;66.93;;;30.83;;
18168;SDS011;49877;50.398;30.324;2022-12-07T18:11:57;68.50;;;30.10;;
18168;SDS011;49877;50.398;30.324;2022-12-07T18:14:24;70.93;;;31.83;;
18168;SDS011;49877;50.398;30.324;2022-12-07T18:16:51;71.27;;;33.23;;
18168;SDS011;49877;50.398;30.324;2022-12-07T18:19:18;71.93;;;29.80;;
18168;SDS011;49877;50.398;30.324;2022-12-07T18:21:46;71.90;;;31.80;;
18168;SDS011;49877;50.398;30.324;2022-12-07T18:24:14;61.80;;;30.33;;
18168;SDS011;49877;50.398;30.324;2022-12-07T18:26:42;58.70;;;27.30;;
18168;SDS011;49877;50.398;30.324;2022-12-07T18:29:12;55.13;;;24.67;;
18168;SDS011;49877;50.398;30.324;2022-12-07T18:31:40;37.37;;;20.60;;
18168;SDS011;49877;50.398;30.324;2022-12-07T18:34:08;43.47;;;22.27;;
18168;SDS011;49877;50.398;30.324;2022-12-07T18:36:37;41.03;;;21.27;;
18168;SDS011;49877;50.398;30.324;2022-12-07T18:39:07;48.90;;;27.10;;
18168;SDS011;49877;50.398;30.324;2022-12-07T18:41:35;42.87;;;24.60;;
18168;SDS011;49877;50.398;30.324;2022-12-07T18:44:02;36.40;;;20.83;;
18168;SDS011;49877;50.398;30.324;2022-12-07T18:46:29;36.83;;;21.30;;
18168;SDS011;49877;50.398;30.324;2022-12-07T18:48:56;38.43;;;21.60;;
18168;SDS011;49877;50.398;30.324;2022-12-07T18:51:25;43.03;;;24.80;;
18168;SDS011;49877;50.398;30.324;2022-12-07T18:53:54;43.57;;;26.43;;
18168;SDS011;49877;50.398;30.324;2022-12-07T18:56:23;42.00;;;22.93;;
18168;SDS011;49877;50.398;30.324;2022-12-07T18:58:51;37.37;;;22.23;;
18168;SDS011;49877;50.398;30.324;2022-12-07T19:01:37;33.97;;;19.87;;
18168;SDS011;49877;50.398;30.324;2022-12-07T19:04:04;33.77;;;20.43;;
18168;SDS011;49877;50.398;30.324;2022-12-07T19:06:31;35.00;;;20.73;;
18168;SDS011;49877;50.398;30.324;2022-12-07T19:08:58;32.17;;;19.40;;
18168;SDS011;49877;50.398;30.324;2022-12-07T19:11:28;29.10;;;17.63;;
18168;SDS011;49877;50.398;30.324;2022-12-07T19:14:13;27.50;;;17.33;;
18168;SDS011;49877;50.398;30.324;2022-12-07T19:16:41;31.23;;;18.97;;
18168;SDS011;49877;50.398;30.324;2022-12-07T19:19:09;33.73;;;19.47;;
18168;SDS011;49877;50.398;30.324;2022-12-07T19:21:36;32.10;;;20.73;;
18168;SDS011;49877;50.398;30.324;2022-12-07T19:24:03;37.87;;;22.23;;
18168;SDS011;49877;50.398;30.324;2022-12-07T19:26:32;38.17;;;23.00;;
18168;SDS011;49877;50.398;30.324;2022-12-07T19:28:59;41.53;;;24.33;;
18168;SDS011;49877;50.398;30.324;2022-12-07T19:31:25;46.20;;;24.27;;
18168;SDS011;49877;50.398;30.324;2022-12-07T19:33:52;72.47;;;33.60;;
18168;SDS011;49877;50.398;30.324;2022-12-07T19:36:19;62.77;;;28.37;;
18168;SDS011;49877;50.398;30.324;2022-12-07T19:38:46;66.30;;;30.20;;
18168;SDS011;49877;50.398;30.324;2022-12-07T19:41:14;59.10;;;29.50;;
18168;SDS011;49877;50.398;30.324;2022-12-07T19:43:57;46.47;;;24.33;;
18168;SDS011;49877;50.398;30.324;2022-12-07T19:46:24;41.87;;;22.97;;
18168;SDS011;49877;50.398;30.324;2022-12-07T19:48:52;35.03;;;21.40;;
18168;SDS011;49877;50.398;30.324;2022-12-07T19:51:19;38.20;;;23.27;;
18168;SDS011;49877;50.398;30.324;2022-12-07T19:53:45;35.13;;;20.90;;
18168;SDS011;49877;50.398;30.324;2022-12-07T19:56:13;35.43;;;20.83;;
18168;SDS011;49877;50.398;30.324;2022-12-07T19:58:40;26.67;;;18.43;;
18168;SDS011;49877;50.398;30.324;2022-12-07T20:01:08;25.73;;;17.90;;
18168;SDS011;49877;50.398;30.324;2022-12-07T20:03:35;29.13;;;17.87;;
18168;SDS011;49877;50.398;30.324;2022-12-07T20:06:05;25.33;;;16.20;;
18168;SDS011;49877;50.398;30.324;2022-12-07T20:08:33;22.77;;;15.07;;
18168;SDS011;49877;50.398;30.324;2022-12-07T20:11:00;22.40;;;15.47;;
18168;SDS011;49877;50.398;30.324;2022-12-07T20:13:48;22.47;;;15.03;;
18168;SDS011;49877;50.398;30.324;2022-12-07T20:16:16;21.07;;;14.47;;
18168;SDS011;49877;50.398;30.324;2022-12-07T20:18:43;21.77;;;15.07;;
18168;SDS011;49877;50.398;30.324;2022-12-07T20:21:10;24.33;;;16.53;;
18168;SDS011;49877;50.398;30.324;2022-12-07T20:23:36;20.67;;;14.30;;
18168;SDS011;49877;50.398;30.324;2022-12-07T20:26:04;21.17;;;14.00;;
18168;SDS011;49877;50.398;30.324;2022-12-07T20:28:33;20.77;;;14.47;;
18168;SDS011;49877;50.398;30.324;2022-12-07T20:31:00;22.40;;;14.00;;
18168;SDS011;49877;50.398;30.324;2022-12-07T20:33:28;22.47;;;14.93;;
18168;SDS011;49877;50.398;30.324;2022-12-07T20:35:57;24.13;;;15.97;;
18168;SDS011;49877;50.398;30.324;2022-12-07T20:38:24;22.13;;;15.07;;
18168;SDS011;49877;50.398;30.324;2022-12-07T20:40:52;22.57;;;15.43;;
18168;SDS011;49877;50.398;30.324;2022-12-07T20:43:23;22.17;;;14.77;;
18168;SDS011;49877;50.398;30.324;2022-12-07T20:45:50;27.10;;;16.70;;
18168;SDS011;49877;50.398;30.324;2022-12-07T20:48:17;24.50;;;15.77;;
18168;SDS011;49877;50.398;30.324;2022-12-07T20:50:45;27.70;;;16.27;;
18168;SDS011;49877;50.398;30.324;2022-12-07T20:53:12;22.80;;;14.67;;
18168;SDS011;49877;50.398;30.324;2022-12-07T20:55:39;27.17;;;16.10;;
18168;SDS011;49877;50.398;30.324;2022-12-07T20:58:05;24.20;;;15.33;;
18168;SDS011;49877;50.398;30.324;2022-12-07T21:00:33;22.80;;;14.67;;
18168;SDS011;49877;50.398;30.324;2022-12-07T21:03:00;24.50;;;15.03;;
18168;SDS011;49877;50.398;30.324;2022-12-07T21:05:27;23.40;;;14.70;;
18168;SDS011;49877;50.398;30.324;2022-12-07T21:07:56;23.73;;;14.80;;
18168;SDS011;49877;50.398;30.324;2022-12-07T21:10:22;23.53;;;15.00;;
18168;SDS011;49877;50.398;30.324;2022-12-07T21:12:49;25.90;;;15.87;;
18168;SDS011;49877;50.398;30.324;2022-12-07T21:15:16;23.47;;;14.83;;
18168;SDS011;49877;50.398;30.324;2022-12-07T21:17:43;23.97;;;14.80;;
18168;SDS011;49877;50.398;30.324;2022-12-07T21:20:10;24.10;;;15.23;;
18168;SDS011;49877;50.398;30.324;2022-12-07T21:22:37;23.73;;;14.70;;
18168;SDS011;49877;50.398;30.324;2022-12-07T21:25:05;31.70;;;16.73;;
18168;SDS011;49877;50.398;30.324;2022-12-07T21:27:33;29.73;;;17.07;;
18168;SDS011;49877;50.398;30.324;2022-12-07T21:29:59;25.57;;;15.37;;
18168;SDS011;49877;50.398;30.324;2022-12-07T21:32:26;30.53;;;17.80;;
18168;SDS011;49877;50.398;30.324;2022-12-07T21:34:53;35.60;;;17.13;;
18168;SDS011;49877;50.398;30.324;2022-12-07T21:37:20;28.07;;;15.57;;
18168;SDS011;49877;50.398;30.324;2022-12-07T21:39:46;29.63;;;16.10;;
18168;SDS011;49877;50.398;30.324;2022-12-07T21:42:14;38.37;;;16.27;;
18168;SDS011;49877;50.398;30.324;2022-12-07T21:44:41;33.60;;;16.50;;
18168;SDS011;49877;50.398;30.324;2022-12-07T21:47:08;28.53;;;16.00;;
18168;SDS011;49877;50.398;30.324;2022-12-07T21:49:35;53.63;;;20.43;;
18168;SDS011;49877;50.398;30.324;2022-12-07T21:52:02;50.10;;;18.53;;
18168;SDS011;49877;50.398;30.324;2022-12-07T21:54:28;43.40;;;18.20;;
18168;SDS011;49877;50.398;30.324;2022-12-07T21:56:55;68.40;;;20.17;;
18168;SDS011;49877;50.398;30.324;2022-12-07T21:59:23;38.20;;;17.33;;
18168;SDS011;49877;50.398;30.324;2022-12-07T22:01:50;41.77;;;17.40;;
18168;SDS011;49877;50.398;30.324;2022-12-07T22:04:19;112.70;;;22.40;;
18168;SDS011;49877;50.398;30.324;2022-12-07T22:06:47;149.40;;;23.70;;
18168;SDS011;49877;50.398;30.324;2022-12-07T22:09:14;95.83;;;20.97;;
18168;SDS011;49877;50.398;30.324;2022-12-07T22:11:42;36.63;;;16.87;;
18168;SDS011;49877;50.398;30.324;2022-12-07T22:14:09;214.47;;;24.97;;
18168;SDS011;49877;50.398;30.324;2022-12-07T22:16:55;43.03;;;16.27;;
18168;SDS011;49877;50.398;30.324;2022-12-07T22:19:22;140.43;;;25.63;;
18168;SDS011;49877;50.398;30.324;2022-12-07T22:21:50;57.47;;;17.40;;
18168;SDS011;49877;50.398;30.324;2022-12-07T22:24:16;76.63;;;20.40;;
18168;SDS011;49877;50.398;30.324;2022-12-07T22:26:43;133.47;;;24.00;;
18168;SDS011;49877;50.398;30.324;2022-12-07T22:29:10;142.57;;;26.47;;
18168;SDS011;49877;50.398;30.324;2022-12-07T22:31:37;174.67;;;30.40;;
18168;SDS011;49877;50.398;30.324;2022-12-07T22:34:06;96.67;;;23.63;;
18168;SDS011;49877;50.398;30.324;2022-12-07T22:36:39;86.87;;;23.20;;
18168;SDS011;49877;50.398;30.324;2022-12-07T22:39:05;164.47;;;36.60;;
18168;SDS011;49877;50.398;30.324;2022-12-07T22:41:33;133.13;;;26.73;;
18168;SDS011;49877;50.398;30.324;2022-12-07T22:44:00;64.17;;;21.10;;
18168;SDS011;49877;50.398;30.324;2022-12-07T22:46:27;107.70;;;25.97;;
18168;SDS011;49877;50.398;30.324;2022-12-07T22:48:53;118.63;;;24.30;;
18168;SDS011;49877;50.398;30.324;2022-12-07T22:51:22;72.07;;;22.03;;
18168;SDS011;49877;50.398;30.324;2022-12-07T22:53:50;67.70;;;18.80;;
18168;SDS011;49877;50.398;30.324;2022-12-07T22:56:18;83.87;;;23.07;;
18168;SDS011;49877;50.398;30.324;2022-12-07T22:58:46;53.90;;;20.37;;
18168;SDS011;49877;50.398;30.324;2022-12-07T23:01:14;78.50;;;23.43;;
18168;SDS011;49877;50.398;30.324;2022-12-07T23:03:42;72.97;;;23.23;;
18168;SDS011;49877;50.398;30.324;2022-12-07T23:06:11;76.90;;;22.47;;
18168;SDS011;49877;50.398;30.324;2022-12-07T23:08:41;57.30;;;22.43;;
18168;SDS011;49877;50.398;30.324;2022-12-07T23:11:08;53.77;;;21.07;;
18168;SDS011;49877;50.398;30.324;2022-12-07T23:13:56;37.97;;;19.33;;
18168;SDS011;49877;50.398;30.324;2022-12-07T23:16:22;30.00;;;17.63;;
18168;SDS011;49877;50.398;30.324;2022-12-07T23:18:49;37.43;;;18.77;;
18168;SDS011;49877;50.398;30.324;2022-12-07T23:21:15;34.60;;;18.30;;
18168;SDS011;49877;50.398;30.324;2022-12-07T23:23:44;33.97;;;17.50;;
18168;SDS011;49877;50.398;30.324;2022-12-07T23:26:11;29.67;;;16.33;;
18168;SDS011;49877;50.398;30.324;2022-12-07T23:28:38;34.90;;;16.23;;
18168;SDS011;49877;50.398;30.324;2022-12-07T23:31:06;27.37;;;15.13;;
18168;SDS011;49877;50.398;30.324;2022-12-07T23:33:34;22.77;;;13.80;;
18168;SDS011;49877;50.398;30.324;2022-12-07T23:36:07;23.07;;;13.30;;
18168;SDS011;49877;50.398;30.324;2022-12-07T23:38:35;25.33;;;13.37;;
18168;SDS011;49877;50.398;30.324;2022-12-07T23:41:05;22.53;;;12.93;;
18168;SDS011;49877;50.398;30.324;2022-12-07T23:43:33;23.33;;;12.63;;
18168;SDS011;49877;50.398;30.324;2022-12-07T23:46:00;24.87;;;12.80;;
18168;SDS011;49877;50.398;30.324;2022-12-07T23:48:27;31.80;;;14.10;;
18168;SDS011;49877;50.398;30.324;2022-12-07T23:50:55;34.43;;;14.60;;
18168;SDS011;49877;50.398;30.324;2022-12-07T23:53:22;37.90;;;15.77;;
18168;SDS011;49877;50.398;30.324;2022-12-07T23:55:50;28.60;;;14.67;;
18168;SDS011;49877;50.398;30.324;2022-12-07T23:58:18;40.80;;;16.43;;
